createdAt,value
2018-04-08T00:02:01.086Z,11.96
2018-04-08T00:04:28.915Z,12.00
2018-04-08T00:06:57.490Z,11.86
2018-04-08T00:09:25.231Z,11.75
2018-04-08T00:11:52.911Z,11.61
2018-04-08T00:14:20.651Z,11.46
2018-04-08T00:16:49.190Z,11.32
2018-04-08T00:19:16.948Z,11.29
2018-04-08T00:21:44.698Z,11.22
2018-04-08T00:24:12.613Z,11.10
2018-04-08T00:26:40.370Z,11.11
2018-04-08T00:29:08.153Z,11.20
2018-04-08T00:31:35.872Z,11.23
2018-04-08T00:34:03.558Z,11.16
2018-04-08T00:36:31.308Z,11.08
2018-04-08T00:38:59.074Z,11.05
2018-04-08T00:41:26.760Z,11.08
2018-04-08T00:43:54.655Z,11.20
2018-04-08T00:46:22.737Z,11.07
2018-04-08T00:48:50.556Z,10.86
2018-04-08T00:51:18.288Z,10.70
2018-04-08T00:53:46.561Z,10.58
2018-04-08T00:56:14.338Z,10.52
2018-04-08T00:58:42.085Z,10.31
2018-04-08T01:01:09.822Z,10.19
2018-04-08T01:03:37.550Z,10.22
2018-04-08T01:06:05.234Z,10.25
2018-04-08T01:08:33.194Z,10.17
2018-04-08T01:11:00.975Z,10.09
2018-04-08T01:13:28.680Z,10.04
2018-04-08T01:15:56.422Z,10.04
2018-04-08T01:18:24.251Z,9.96
2018-04-08T01:20:51.951Z,9.96
2018-04-08T01:23:20.559Z,9.94
2018-04-08T01:25:48.251Z,9.88
2018-04-08T01:28:16.878Z,9.88
2018-04-08T01:30:45.522Z,9.83
2018-04-08T01:33:13.265Z,9.80
2018-04-08T01:35:41.132Z,9.71
2018-04-08T01:38:08.883Z,9.69
2018-04-08T01:40:36.626Z,9.72
2018-04-08T01:43:04.360Z,9.71
2018-04-08T01:45:33.096Z,9.74
2018-04-08T01:48:00.845Z,9.78
2018-04-08T01:50:28.628Z,9.84
2018-04-08T01:52:56.381Z,9.87
2018-04-08T01:55:24.159Z,9.93
2018-04-08T01:57:52.021Z,9.89
2018-04-08T02:00:20.087Z,9.90
2018-04-08T02:02:48.663Z,9.81
2018-04-08T02:05:16.378Z,9.77
2018-04-08T02:07:44.117Z,9.84
2018-04-08T02:10:11.852Z,10.26
2018-04-08T02:12:39.614Z,10.25
2018-04-08T02:15:07.342Z,10.44
2018-04-08T02:17:35.187Z,10.43
2018-04-08T02:20:02.933Z,10.39
2018-04-08T02:22:30.719Z,10.54
2018-04-08T02:24:58.422Z,10.38
2018-04-08T02:27:26.918Z,10.12
2018-04-08T02:29:54.619Z,10.12
2018-04-08T02:32:22.456Z,9.87
2018-04-08T02:34:50.234Z,9.80
2018-04-08T02:37:18.083Z,9.68
2018-04-08T02:39:45.818Z,9.59
2018-04-08T02:42:13.575Z,9.57
2018-04-08T02:44:41.694Z,9.51
2018-04-08T02:47:09.549Z,9.54
2018-04-08T02:49:37.298Z,9.56
2018-04-08T02:52:05.058Z,9.50
2018-04-08T02:54:33.087Z,9.46
2018-04-08T02:57:01.086Z,9.43
2018-04-08T02:59:28.839Z,9.30
2018-04-08T03:01:56.584Z,9.09
2018-04-08T03:04:24.334Z,8.98
2018-04-08T03:06:52.058Z,8.91
2018-04-08T03:09:19.826Z,8.78
2018-04-08T03:11:47.662Z,8.84
2018-04-08T03:14:15.469Z,8.88
2018-04-08T03:16:43.965Z,8.83
2018-04-08T03:19:11.720Z,8.79
2018-04-08T03:21:39.998Z,8.84
2018-04-08T03:24:07.780Z,8.75
2018-04-08T03:26:36.440Z,8.72
2018-04-08T03:29:04.193Z,8.75
2018-04-08T03:31:31.974Z,8.82
2018-04-08T03:34:00.747Z,8.75
2018-04-08T03:36:28.596Z,8.56
2018-04-08T03:38:56.551Z,8.62
2018-04-08T03:41:24.304Z,8.64
2018-04-08T03:43:53.095Z,8.58
2018-04-08T03:46:21.403Z,8.40
2018-04-08T03:48:49.131Z,8.47
2018-04-08T03:51:16.831Z,8.49
2018-04-08T03:53:44.640Z,8.46
2018-04-08T03:56:12.533Z,8.49
2018-04-08T03:58:40.408Z,8.58
2018-04-08T04:01:08.716Z,8.60
2018-04-08T04:03:37.385Z,8.61
2018-04-08T04:06:05.170Z,8.58
2018-04-08T04:08:32.936Z,8.60
2018-04-08T04:11:01.158Z,8.65
2018-04-08T04:13:29.970Z,8.55
2018-04-08T04:15:58.928Z,8.50
2018-04-08T04:18:38.445Z,8.44
2018-04-08T04:21:19.013Z,8.46
2018-04-08T04:23:59.154Z,8.53
2018-04-08T04:26:31.906Z,8.49
2018-04-08T04:28:59.664Z,8.46
2018-04-08T04:31:27.599Z,8.63
2018-04-08T04:33:55.601Z,8.69
2018-04-08T04:36:24.177Z,8.77
2018-04-08T04:38:51.934Z,8.89
2018-04-08T04:41:20.411Z,8.94
2018-04-08T04:43:49.135Z,8.64
2018-04-08T04:46:16.874Z,8.71
2018-04-08T04:48:45.707Z,8.91
2018-04-08T04:51:14.377Z,9.03
2018-04-08T04:53:42.319Z,9.07
2018-04-08T04:56:10.476Z,9.26
2018-04-08T04:58:39.037Z,9.39
2018-04-08T05:01:07.853Z,9.47
2018-04-08T05:03:35.718Z,9.49
2018-04-08T05:06:03.517Z,9.71
2018-04-08T05:08:32.144Z,9.78
2018-04-08T05:11:00.667Z,9.86
2018-04-08T05:13:28.753Z,10.01
2018-04-08T05:15:56.612Z,10.09
2018-04-08T05:18:24.519Z,10.18
2018-04-08T05:20:53.081Z,10.25
2018-04-08T05:23:22.546Z,10.38
2018-04-08T05:25:50.378Z,10.49
2018-04-08T05:28:18.933Z,10.66
2018-04-08T05:30:46.698Z,10.95
2018-04-08T05:33:14.940Z,11.31
2018-04-08T05:35:43.078Z,11.46
2018-04-08T05:38:10.850Z,11.61
2018-04-08T05:40:38.695Z,11.73
2018-04-08T05:43:06.455Z,11.88
2018-04-08T05:45:35.066Z,11.77
2018-04-08T05:48:02.855Z,12.03
2018-04-08T05:50:30.662Z,12.44
2018-04-08T05:52:58.437Z,12.54
2018-04-08T05:55:26.646Z,12.35
2018-04-08T05:57:54.926Z,12.50
2018-04-08T06:00:24.905Z,12.72
2018-04-08T06:02:53.176Z,12.75
2018-04-08T06:05:21.414Z,12.43
2018-04-08T06:07:49.171Z,12.68
2018-04-08T06:10:16.828Z,12.65
2018-04-08T06:12:44.510Z,12.55
2018-04-08T06:15:12.254Z,12.49
2018-04-08T06:17:40.779Z,12.74
2018-04-08T06:20:08.510Z,13.01
2018-04-08T06:22:36.711Z,13.13
2018-04-08T06:25:04.547Z,13.22
2018-04-08T06:27:32.391Z,13.19
2018-04-08T06:30:00.137Z,13.15
2018-04-08T06:32:28.791Z,13.12
2018-04-08T06:34:57.017Z,13.07
2018-04-08T06:37:25.746Z,13.04
2018-04-08T06:39:54.628Z,12.65
2018-04-08T06:42:22.416Z,12.78
2018-04-08T06:44:50.243Z,12.72
2018-04-08T06:47:18.098Z,13.08
2018-04-08T06:49:46.089Z,13.02
2018-04-08T06:52:13.868Z,13.61
2018-04-08T06:54:41.667Z,13.74
2018-04-08T06:57:09.395Z,13.95
2018-04-08T06:59:40.486Z,13.87
2018-04-08T07:02:08.266Z,13.82
2018-04-08T07:04:36.124Z,13.89
2018-04-08T07:07:03.896Z,13.83
2018-04-08T07:09:31.639Z,13.73
2018-04-08T07:11:59.528Z,14.09
2018-04-08T07:14:27.349Z,14.36
2018-04-08T07:16:55.092Z,14.54
2018-04-08T07:19:22.839Z,14.39
2018-04-08T07:21:50.554Z,14.67
2018-04-08T07:24:19.227Z,14.60
2018-04-08T07:26:46.962Z,14.88
2018-04-08T07:29:14.630Z,14.80
2018-04-08T07:31:42.388Z,14.78
2018-04-08T07:34:10.129Z,14.73
2018-04-08T07:36:37.896Z,14.84
2018-04-08T07:39:05.833Z,14.72
2018-04-08T07:41:33.542Z,14.68
2018-04-08T07:44:01.282Z,14.88
2018-04-08T07:46:29.012Z,15.20
2018-04-08T07:48:56.802Z,15.39
2018-04-08T07:51:24.472Z,15.44
2018-04-08T07:53:52.318Z,15.29
2018-04-08T07:56:20.078Z,15.50
2018-04-08T07:58:47.860Z,15.28
2018-04-08T08:01:15.832Z,15.17
2018-04-08T08:03:43.619Z,15.28
2018-04-08T08:06:11.301Z,15.67
2018-04-08T08:08:38.971Z,15.70
2018-04-08T08:11:07.660Z,15.45
2018-04-08T08:13:35.628Z,15.52
2018-04-08T08:16:03.396Z,15.37
2018-04-08T08:18:31.166Z,15.74
2018-04-08T08:20:58.847Z,15.86
2018-04-08T08:23:27.449Z,15.75
2018-04-08T08:25:55.180Z,15.87
2018-04-08T08:28:22.975Z,16.09
2018-04-08T08:30:52.012Z,16.21
2018-04-08T08:33:21.032Z,16.24
2018-04-08T08:35:48.745Z,16.23
2018-04-08T08:38:16.542Z,16.40
2018-04-08T08:40:44.285Z,16.40
2018-04-08T08:43:11.944Z,16.58
2018-04-08T08:45:39.657Z,16.61
2018-04-08T08:48:07.363Z,16.71
2018-04-08T08:50:35.057Z,16.76
2018-04-08T08:53:02.775Z,17.12
2018-04-08T08:55:30.513Z,17.60
2018-04-08T08:57:58.257Z,17.43
2018-04-08T09:00:25.955Z,17.62
2018-04-08T09:02:53.681Z,17.54
2018-04-08T09:05:21.519Z,17.78
2018-04-08T09:07:49.285Z,18.04
2018-04-08T09:10:17.080Z,17.95
2018-04-08T09:12:44.810Z,17.83
2018-04-08T09:15:12.552Z,17.81
2018-04-08T09:17:40.322Z,18.12
2018-04-08T09:20:12.377Z,18.25
2018-04-08T09:22:42.896Z,18.34
2018-04-08T09:25:23.273Z,18.85
2018-04-08T09:27:51.084Z,18.37
2018-04-08T09:30:18.740Z,18.53
2018-04-08T09:32:46.532Z,18.80
2018-04-08T09:35:14.294Z,18.80
2018-04-08T09:37:42.119Z,18.86
2018-04-08T09:40:10.606Z,18.93
2018-04-08T09:42:39.333Z,19.20
2018-04-08T09:45:07.062Z,19.35
2018-04-08T09:47:34.824Z,19.54
2018-04-08T09:50:02.528Z,19.72
2018-04-08T09:52:30.313Z,20.00
2018-04-08T09:54:58.036Z,20.02
2018-04-08T09:57:26.233Z,20.35
2018-04-08T09:59:53.963Z,20.42
2018-04-08T10:02:27.147Z,20.63
2018-04-08T10:04:54.814Z,20.78
2018-04-08T10:07:44.300Z,21.13
2018-04-08T10:10:11.965Z,21.06
2018-04-08T10:12:39.803Z,21.21
2018-04-08T10:21:12.632Z,21.76
2018-04-08T10:43:29.714Z,23.39
2018-04-08T10:45:57.519Z,23.58
2018-04-08T10:48:25.261Z,23.98
2018-04-08T10:50:53.139Z,24.39
2018-04-08T10:53:20.900Z,23.82
2018-04-08T10:55:48.682Z,24.22
2018-04-08T10:58:16.459Z,24.57
2018-04-08T11:00:44.252Z,24.14
2018-04-08T11:03:12.032Z,23.57
2018-04-08T11:05:39.766Z,24.16
2018-04-08T11:08:07.642Z,24.26
2018-04-08T11:10:35.364Z,24.31
2018-04-08T11:13:03.234Z,23.98
2018-04-08T11:15:31.000Z,24.16
2018-04-08T11:17:58.753Z,24.23
2018-04-08T11:20:26.547Z,24.21
2018-04-08T11:22:54.571Z,24.28
2018-04-08T11:25:29.890Z,24.13
2018-04-08T11:27:57.702Z,24.36
2018-04-08T11:30:25.422Z,24.45
2018-04-08T11:32:53.178Z,24.48
2018-04-08T11:35:20.912Z,24.85
2018-04-08T11:37:48.765Z,25.01
2018-04-08T11:40:16.540Z,25.07
2018-04-08T11:42:44.304Z,25.12
2018-04-08T11:45:12.025Z,25.12
2018-04-08T11:47:39.801Z,25.55
2018-04-08T11:50:07.659Z,25.55
2018-04-08T11:52:35.411Z,25.61
2018-04-08T11:55:03.181Z,25.82
2018-04-08T11:57:30.930Z,26.02
2018-04-08T11:59:58.691Z,25.82
2018-04-08T12:02:26.608Z,25.98
2018-04-08T12:04:54.412Z,25.62
2018-04-08T12:07:22.808Z,25.62
2018-04-08T12:09:50.822Z,25.47
2018-04-08T12:12:18.608Z,26.02
2018-04-08T12:14:46.349Z,25.70
2018-04-08T12:17:14.193Z,25.78
2018-04-08T12:19:41.971Z,26.33
2018-04-08T12:22:09.833Z,26.48
2018-04-08T12:24:37.815Z,27.33
2018-04-08T12:27:08.098Z,27.79
2018-04-08T12:29:36.056Z,28.75
2018-04-08T12:32:04.062Z,29.41
2018-04-08T12:34:31.998Z,30.48
2018-04-08T12:36:59.948Z,31.31
2018-04-08T12:39:28.629Z,31.35
2018-04-08T12:41:56.500Z,32.52
2018-04-08T12:44:24.404Z,33.36
2018-04-08T12:46:52.336Z,34.94
2018-04-08T12:49:21.644Z,37.00
2018-04-08T12:54:32.171Z,36.26
2018-04-08T12:57:04.391Z,37.47
2018-04-08T14:40:43.471Z,44.18
2018-04-08T14:46:17.741Z,42.35
2018-04-08T14:48:52.796Z,42.83
2018-04-08T14:51:22.915Z,43.59
2018-04-08T14:53:50.968Z,44.13
2018-04-08T14:56:19.146Z,39.95
2018-04-08T14:58:48.636Z,40.68
2018-04-08T15:01:19.166Z,40.74
2018-04-08T15:03:48.168Z,42.70
2018-04-08T15:06:16.293Z,43.56
2018-04-08T15:08:45.954Z,42.64
2018-04-08T15:11:14.400Z,42.88
2018-04-08T15:13:43.722Z,42.78
2018-04-08T15:16:11.956Z,42.87
2018-04-08T15:18:40.141Z,43.02
2018-04-08T15:21:08.830Z,42.23
2018-04-08T15:23:39.371Z,42.30
2018-04-08T15:26:07.458Z,41.40
2018-04-08T15:28:35.310Z,40.42
2018-04-08T15:31:03.381Z,38.46
2018-04-08T15:33:31.446Z,37.24
2018-04-08T15:35:59.345Z,37.46
2018-04-08T15:38:27.448Z,35.99
2018-04-08T15:40:55.476Z,34.88
2018-04-08T15:43:23.643Z,35.62
2018-04-08T15:45:51.699Z,34.13
2018-04-08T15:48:19.654Z,33.32
2018-04-08T15:50:47.611Z,32.46
2018-04-08T15:53:15.543Z,31.99
2018-04-08T15:55:43.458Z,30.05
2018-04-08T15:58:12.332Z,31.75
2018-04-08T16:00:40.499Z,31.67
2018-04-08T16:03:10.144Z,31.68
2018-04-08T16:05:38.821Z,30.73
2018-04-08T16:08:07.516Z,30.72
2018-04-08T16:10:35.497Z,32.16
2018-04-08T16:13:03.663Z,32.33
2018-04-08T16:15:31.666Z,31.45
2018-04-08T16:27:19.298Z,29.39
2018-04-08T16:29:47.202Z,28.83
2018-04-08T16:32:15.164Z,29.14
2018-04-08T16:34:43.230Z,29.53
2018-04-08T16:37:11.307Z,28.62
2018-04-08T16:39:39.360Z,27.50
2018-04-08T16:42:07.245Z,27.56
2018-04-08T16:44:35.203Z,27.37
2018-04-08T16:47:03.163Z,26.86
2018-04-08T16:49:31.040Z,25.86
2018-04-08T16:51:58.875Z,25.17
2018-04-08T16:54:26.863Z,24.86
2018-04-08T16:56:54.824Z,23.98
2018-04-08T16:59:22.792Z,23.76
2018-04-08T17:01:50.790Z,23.14
2018-04-08T17:04:18.830Z,22.88
2018-04-08T17:06:46.686Z,21.70
2018-04-08T17:09:14.662Z,21.24
2018-04-08T17:11:42.522Z,21.00
2018-04-08T17:14:10.604Z,21.22
2018-04-08T17:16:39.753Z,20.99
2018-04-08T17:19:07.749Z,21.00
2018-04-08T17:21:35.690Z,20.68
2018-04-08T17:24:03.687Z,20.67
2018-04-08T17:26:32.604Z,20.36
2018-04-08T17:29:00.623Z,20.46
2018-04-08T17:31:28.463Z,20.35
2018-04-08T17:33:59.441Z,19.73
2018-04-08T17:36:27.788Z,19.26
2018-04-08T17:38:57.548Z,19.21
2018-04-08T17:41:29.534Z,19.11
2018-04-08T17:43:57.348Z,18.55
2018-04-08T17:46:25.169Z,18.50
2018-04-08T17:48:52.928Z,18.20
2018-04-08T17:51:24.928Z,18.65
2018-04-08T17:53:52.700Z,18.46
2018-04-08T17:56:21.389Z,18.77
2018-04-08T17:58:49.388Z,18.66
2018-04-08T18:01:19.919Z,18.87
2018-04-08T18:03:47.891Z,18.50
2018-04-08T18:06:19.076Z,18.69
2018-04-08T18:08:46.847Z,18.62
2018-04-08T18:11:15.676Z,18.23
2018-04-08T18:13:43.431Z,18.10
2018-04-08T18:16:11.366Z,18.24
2018-04-08T18:18:39.122Z,18.15
2018-04-08T18:21:07.651Z,18.11
2018-04-08T18:23:35.369Z,18.04
2018-04-08T18:26:03.140Z,18.03
2018-04-08T18:28:30.927Z,18.03
2018-04-08T18:30:59.891Z,18.02
2018-04-08T18:33:27.635Z,17.95
2018-04-08T18:35:56.333Z,17.79
2018-04-08T18:38:30.886Z,17.75
2018-04-08T18:40:58.832Z,17.78
2018-04-08T18:43:26.761Z,17.76
2018-04-08T18:45:54.786Z,17.86
2018-04-08T18:48:23.296Z,17.74
2018-04-08T18:50:51.036Z,17.59
2018-04-08T18:53:19.602Z,17.35
2018-04-08T18:55:47.341Z,17.20
2018-04-08T18:58:15.016Z,17.23
2018-04-08T19:00:42.752Z,17.08
2018-04-08T19:03:11.116Z,16.90
2018-04-08T19:05:39.609Z,16.79
2018-04-08T19:08:07.377Z,16.84
2018-04-08T19:10:35.199Z,16.86
2018-04-08T19:13:03.007Z,16.75
2018-04-08T19:15:33.210Z,16.79
2018-04-08T19:18:04.951Z,16.65
2018-04-08T19:20:33.755Z,16.66
2018-04-08T19:23:02.362Z,16.62
2018-04-08T19:25:30.860Z,16.72
2018-04-08T19:28:00.016Z,16.77
2018-04-08T19:30:27.856Z,16.78
2018-04-08T19:32:55.528Z,16.58
2018-04-08T19:35:23.316Z,16.68
2018-04-08T19:37:52.048Z,16.76
2018-04-08T19:40:19.889Z,16.74
2018-04-08T19:42:48.571Z,16.70
2018-04-08T19:45:16.334Z,16.63
2018-04-08T19:47:44.049Z,16.39
2018-04-08T19:50:12.638Z,16.49
2018-04-08T19:52:40.414Z,16.55
2018-04-08T19:55:09.402Z,16.78
2018-04-08T19:57:37.176Z,16.53
2018-04-08T20:00:05.901Z,16.53
2018-04-08T20:02:33.605Z,16.52
2018-04-08T20:05:01.930Z,16.63
2018-04-08T20:07:29.696Z,16.69
2018-04-08T20:09:57.615Z,16.58
2018-04-08T20:12:25.284Z,16.37
2018-04-08T20:14:53.014Z,16.58
2018-04-08T20:17:20.736Z,16.53
2018-04-08T20:19:48.485Z,16.48
2018-04-08T20:22:16.225Z,16.44
2018-04-08T20:24:43.908Z,16.45
2018-04-08T20:27:11.693Z,16.42
2018-04-08T20:29:39.377Z,16.37
2018-04-08T20:32:07.110Z,16.29
2018-04-08T20:34:34.829Z,16.24
2018-04-08T20:37:02.660Z,16.21
2018-04-08T20:39:30.396Z,16.26
2018-04-08T20:41:58.121Z,16.28
2018-04-08T20:44:25.792Z,15.97
2018-04-08T20:46:54.197Z,16.15
2018-04-08T20:49:21.914Z,16.18
2018-04-08T20:51:49.596Z,15.85
2018-04-08T21:01:02.544Z,15.68
2018-04-08T21:03:30.257Z,15.76
2018-04-08T21:05:57.955Z,15.60
2018-04-08T21:08:25.692Z,15.51
2018-04-08T21:10:53.419Z,15.45
2018-04-08T21:13:21.176Z,15.40
2018-04-08T21:15:48.859Z,15.48
2018-04-08T21:18:16.635Z,15.46
2018-04-08T21:20:45.013Z,15.51
2018-04-08T21:23:12.728Z,15.48
2018-04-08T21:25:40.515Z,15.49
2018-04-08T21:28:08.295Z,15.47
2018-04-08T21:30:36.037Z,15.31
2018-04-08T21:33:03.760Z,14.74
2018-04-08T21:35:31.573Z,14.86
2018-04-08T21:37:59.319Z,14.69
2018-04-08T21:40:26.984Z,14.86
2018-04-08T21:42:58.182Z,14.59
2018-04-08T21:45:26.056Z,14.48
2018-04-08T21:47:53.753Z,14.47
2018-04-08T21:50:21.474Z,14.47
2018-04-08T21:52:49.251Z,14.34
2018-04-08T21:55:16.984Z,14.53
2018-04-08T21:57:45.434Z,14.66
2018-04-08T22:00:13.242Z,14.30
2018-04-08T22:02:40.993Z,14.07
2018-04-08T22:05:08.701Z,14.24
2018-04-08T22:07:36.409Z,14.19
2018-04-08T22:10:04.197Z,14.06
2018-04-08T22:12:31.926Z,14.11
2018-04-08T22:14:59.739Z,14.35
2018-04-08T22:17:27.523Z,14.25
2018-04-08T22:19:55.212Z,14.27
2018-04-08T22:22:22.939Z,14.27
2018-04-08T22:24:50.611Z,14.21
2018-04-08T22:27:18.345Z,14.33
2018-04-08T22:29:46.112Z,14.33
2018-04-08T22:32:13.863Z,14.22
2018-04-08T22:34:41.992Z,14.26
2018-04-08T22:37:09.673Z,14.15
2018-04-08T22:39:37.389Z,14.28
2018-04-08T22:42:05.110Z,13.99
2018-04-08T22:44:32.901Z,14.09
2018-04-08T22:47:00.643Z,14.24
2018-04-08T22:49:28.340Z,14.34
2018-04-08T22:51:56.065Z,14.32
2018-04-08T22:54:23.844Z,14.35
2018-04-08T22:56:51.543Z,14.41
2018-04-08T22:59:19.259Z,14.25
2018-04-08T23:01:46.937Z,14.35
2018-04-08T23:04:14.689Z,14.44
2018-04-08T23:06:42.441Z,14.39
2018-04-08T23:09:10.206Z,14.24
2018-04-08T23:11:38.102Z,14.07
2018-04-08T23:14:05.862Z,14.14
2018-04-08T23:16:33.606Z,14.20
2018-04-08T23:19:01.349Z,14.10
2018-04-08T23:21:29.222Z,14.22
2018-04-08T23:23:57.017Z,14.14
2018-04-08T23:26:24.757Z,14.18
2018-04-08T23:28:52.472Z,14.12
2018-04-08T23:31:20.175Z,13.98
2018-04-08T23:33:47.898Z,14.01
2018-04-08T23:36:15.743Z,13.97
2018-04-08T23:38:43.593Z,14.04
2018-04-08T23:41:11.296Z,14.02
2018-04-08T23:43:39.042Z,13.86
2018-04-08T23:46:06.953Z,13.84
2018-04-08T23:48:34.701Z,13.78
2018-04-08T23:51:02.410Z,13.61
2018-04-08T23:53:30.104Z,13.68
2018-04-08T23:55:57.952Z,13.54
2018-04-08T23:58:25.776Z,13.64
